createdAt,value
2018-03-31T00:01:49.710Z,21.23
2018-03-31T00:04:17.548Z,19.80
2018-03-31T00:06:45.344Z,20.73
2018-03-31T00:09:13.217Z,20.23
2018-03-31T00:11:40.999Z,22.63
2018-03-31T00:14:08.814Z,22.67
2018-03-31T00:16:36.652Z,21.90
2018-03-31T00:19:04.548Z,18.70
2018-03-31T00:21:32.338Z,25.47
2018-03-31T00:24:00.205Z,22.27
2018-03-31T00:26:28.007Z,25.23
2018-03-31T00:28:57.477Z,21.83
2018-03-31T00:31:25.240Z,22.40
2018-03-31T00:33:53.106Z,27.17
2018-03-31T00:36:20.890Z,19.73
2018-03-31T00:38:48.715Z,21.10
2018-03-31T00:41:16.580Z,21.07
2018-03-31T00:43:44.354Z,21.73
2018-03-31T00:46:12.142Z,18.63
2018-03-31T00:48:39.940Z,21.03
2018-03-31T00:51:07.739Z,21.33
2018-03-31T00:53:35.525Z,22.83
2018-03-31T00:56:03.366Z,18.53
2018-03-31T00:58:31.129Z,20.03
2018-03-31T01:00:58.941Z,20.00
2018-03-31T01:03:26.803Z,19.70
2018-03-31T01:05:54.608Z,19.50
2018-03-31T01:08:22.458Z,19.87
2018-03-31T01:10:50.252Z,20.50
2018-03-31T01:13:18.048Z,21.20
2018-03-31T01:15:45.845Z,17.60
2018-03-31T01:18:13.664Z,18.50
2018-03-31T01:20:41.448Z,19.07
2018-03-31T01:23:09.231Z,18.20
2018-03-31T01:25:37.097Z,17.90
2018-03-31T01:28:04.877Z,17.03
2018-03-31T01:30:32.660Z,18.37
2018-03-31T01:33:00.442Z,20.17
2018-03-31T01:35:28.214Z,17.93
2018-03-31T01:37:58.207Z,18.37
2018-03-31T01:40:26.370Z,18.80
2018-03-31T01:42:54.171Z,21.80
2018-03-31T01:45:21.956Z,18.30
2018-03-31T01:47:49.754Z,19.27
2018-03-31T01:50:17.599Z,19.07
2018-03-31T01:52:45.636Z,18.93
2018-03-31T01:55:13.501Z,17.97
2018-03-31T01:57:41.287Z,20.17
2018-03-31T02:00:09.087Z,17.37
2018-03-31T02:02:37.044Z,19.73
2018-03-31T02:05:05.221Z,17.50
2018-03-31T02:07:33.056Z,17.40
2018-03-31T02:10:00.836Z,19.27
2018-03-31T02:12:28.750Z,20.03
2018-03-31T02:14:57.516Z,21.10
2018-03-31T02:17:25.325Z,20.63
2018-03-31T02:19:53.106Z,18.70
2018-03-31T02:22:20.958Z,17.10
2018-03-31T02:24:48.860Z,18.63
2018-03-31T02:27:16.643Z,18.63
2018-03-31T02:29:44.441Z,20.87
2018-03-31T02:32:12.225Z,20.57
2018-03-31T02:34:40.009Z,22.17
2018-03-31T02:37:07.788Z,20.53
2018-03-31T02:39:35.657Z,19.27
2018-03-31T02:42:03.547Z,19.43
2018-03-31T02:44:32.557Z,19.70
2018-03-31T02:47:00.353Z,22.97
2018-03-31T02:49:28.337Z,20.23
2018-03-31T02:51:56.165Z,21.87
2018-03-31T02:54:23.953Z,21.17
2018-03-31T02:56:51.750Z,20.37
2018-03-31T02:59:19.543Z,20.77
2018-03-31T03:01:47.326Z,24.53
2018-03-31T03:04:15.154Z,24.60
2018-03-31T03:06:42.930Z,22.40
2018-03-31T03:09:10.731Z,22.93
2018-03-31T03:11:38.549Z,23.20
2018-03-31T03:14:06.347Z,26.67
2018-03-31T03:16:34.122Z,26.80
2018-03-31T03:19:01.940Z,27.37
2018-03-31T03:21:29.739Z,26.13
2018-03-31T03:23:57.531Z,27.97
2018-03-31T03:26:25.344Z,28.13
2018-03-31T03:28:53.138Z,28.53
2018-03-31T03:31:20.958Z,29.30
2018-03-31T03:33:48.731Z,31.27
2018-03-31T03:36:16.618Z,26.43
2018-03-31T03:38:44.385Z,26.93
2018-03-31T03:41:12.400Z,30.37
2018-03-31T03:43:40.290Z,29.07
2018-03-31T03:46:08.575Z,31.03
2018-03-31T03:48:36.355Z,31.40
2018-03-31T03:51:04.161Z,35.97
2018-03-31T03:53:31.936Z,33.80
2018-03-31T03:55:59.784Z,38.33
2018-03-31T03:58:27.562Z,43.47
2018-03-31T04:00:55.349Z,36.40
2018-03-31T04:03:23.126Z,39.07
2018-03-31T04:05:50.940Z,34.00
2018-03-31T04:08:18.723Z,31.83
2018-03-31T04:10:46.609Z,38.57
2018-03-31T04:13:14.384Z,41.60
2018-03-31T04:15:42.216Z,39.03
2018-03-31T04:18:10.227Z,34.53
2018-03-31T04:20:38.126Z,37.67
2018-03-31T04:23:06.007Z,41.33
2018-03-31T04:25:33.926Z,35.87
2018-03-31T04:28:01.708Z,42.17
2018-03-31T04:30:29.510Z,38.53
2018-03-31T04:32:57.285Z,37.80
2018-03-31T04:35:25.104Z,34.37
2018-03-31T04:37:52.921Z,41.03
2018-03-31T04:40:20.702Z,31.93
2018-03-31T04:42:48.493Z,33.67
2018-03-31T04:45:16.286Z,37.90
2018-03-31T04:47:44.061Z,39.87
2018-03-31T04:50:11.914Z,38.93
2018-03-31T04:52:39.728Z,34.33
2018-03-31T04:55:07.518Z,36.33
2018-03-31T04:57:35.308Z,36.87
2018-03-31T05:00:03.084Z,36.27
2018-03-31T05:02:30.895Z,38.50
2018-03-31T05:04:58.667Z,33.37
2018-03-31T05:07:26.471Z,32.07
2018-03-31T05:09:54.262Z,42.73
2018-03-31T05:12:22.074Z,39.67
2018-03-31T05:14:49.853Z,39.33
2018-03-31T05:17:17.652Z,38.73
2018-03-31T05:19:45.424Z,36.67
2018-03-31T05:22:13.247Z,39.60
2018-03-31T05:24:41.138Z,42.93
2018-03-31T05:27:08.943Z,35.37
2018-03-31T05:29:36.714Z,36.63
2018-03-31T05:32:04.542Z,34.07
2018-03-31T05:34:32.316Z,43.60
2018-03-31T05:37:00.114Z,38.90
2018-03-31T05:39:27.879Z,40.20
2018-03-31T05:41:55.740Z,38.43
2018-03-31T05:44:23.643Z,34.07
2018-03-31T05:46:51.453Z,41.03
2018-03-31T05:49:19.224Z,39.10
2018-03-31T05:51:47.001Z,36.30
2018-03-31T05:54:14.852Z,38.87
2018-03-31T05:56:42.631Z,41.27
2018-03-31T05:59:10.507Z,39.57
2018-03-31T06:01:38.474Z,38.13
2018-03-31T06:04:06.262Z,40.40
2018-03-31T06:06:34.104Z,40.57
2018-03-31T06:09:02.048Z,38.03
2018-03-31T06:11:29.820Z,39.47
2018-03-31T06:13:57.667Z,43.70
2018-03-31T06:16:25.431Z,38.10
2018-03-31T06:18:53.224Z,38.20
2018-03-31T06:21:21.019Z,37.20
2018-03-31T06:23:48.800Z,39.40
2018-03-31T06:26:16.649Z,42.83
2018-03-31T06:28:44.436Z,41.33
2018-03-31T06:31:12.228Z,43.47
2018-03-31T06:33:40.278Z,35.83
2018-03-31T06:36:08.076Z,33.80
2018-03-31T06:38:35.876Z,39.63
2018-03-31T06:41:03.683Z,44.77
2018-03-31T06:43:31.482Z,36.53
2018-03-31T06:45:59.259Z,39.30
2018-03-31T06:48:27.072Z,37.07
2018-03-31T06:50:54.856Z,39.73
2018-03-31T06:53:22.639Z,41.30
2018-03-31T06:55:50.494Z,36.27
2018-03-31T06:58:18.340Z,39.07
2018-03-31T07:00:46.130Z,38.80
2018-03-31T07:03:13.921Z,38.90
2018-03-31T07:05:41.714Z,36.57
2018-03-31T07:08:09.661Z,37.60
2018-03-31T07:10:37.487Z,33.80
2018-03-31T07:13:05.311Z,33.93
2018-03-31T07:15:33.195Z,34.93
2018-03-31T07:18:01.140Z,39.63
2018-03-31T07:20:29.016Z,33.67
2018-03-31T07:22:57.130Z,37.30
2018-03-31T07:25:24.972Z,38.17
2018-03-31T07:27:52.763Z,34.40
2018-03-31T07:30:20.620Z,33.10
2018-03-31T07:32:48.411Z,36.07
2018-03-31T07:35:16.192Z,31.10
2018-03-31T07:37:44.055Z,38.70
2018-03-31T07:40:11.891Z,36.17
2018-03-31T07:42:39.300Z,33.67
2018-03-31T07:45:06.877Z,38.43
2018-03-31T07:47:34.649Z,36.07
2018-03-31T07:50:02.638Z,37.43
2018-03-31T07:52:30.411Z,32.97
2018-03-31T07:54:58.202Z,39.37
2018-03-31T07:57:26.948Z,45.30
2018-03-31T07:59:54.736Z,41.23
2018-03-31T08:02:22.536Z,41.57
2018-03-31T08:04:50.335Z,35.97
2018-03-31T08:07:18.373Z,42.43
2018-03-31T08:09:46.261Z,35.37
2018-03-31T08:12:14.057Z,33.83
2018-03-31T08:14:41.844Z,33.50
2018-03-31T08:17:09.688Z,33.77
2018-03-31T08:19:37.975Z,36.53
2018-03-31T08:22:05.801Z,31.47
2018-03-31T08:24:33.591Z,37.07
2018-03-31T08:27:01.371Z,35.53
2018-03-31T08:29:29.177Z,57.87
2018-03-31T08:31:56.959Z,38.60
2018-03-31T08:34:24.842Z,41.33
2018-03-31T08:36:52.634Z,38.73
2018-03-31T08:39:20.440Z,37.23
2018-03-31T08:41:48.262Z,39.33
2018-03-31T08:44:16.155Z,41.97
2018-03-31T08:46:43.948Z,42.47
2018-03-31T08:49:11.792Z,45.03
2018-03-31T08:51:39.622Z,41.70
2018-03-31T08:54:07.428Z,41.83
2018-03-31T08:56:35.234Z,37.77
2018-03-31T08:59:03.040Z,44.10
2018-03-31T09:01:30.882Z,41.83
2018-03-31T09:03:58.824Z,42.20
2018-03-31T09:06:26.597Z,37.77
2018-03-31T09:08:54.444Z,40.40
2018-03-31T09:11:22.229Z,38.67
2018-03-31T09:13:50.057Z,38.97
2018-03-31T09:16:17.866Z,40.40
2018-03-31T09:18:45.661Z,38.37
2018-03-31T09:21:13.489Z,35.57
2018-03-31T09:23:41.298Z,36.07
2018-03-31T09:26:09.163Z,36.00
2018-03-31T09:28:37.295Z,34.87
2018-03-31T09:31:05.472Z,35.93
2018-03-31T09:33:33.679Z,32.83
2018-03-31T09:36:01.770Z,36.73
2018-03-31T09:38:29.728Z,43.40
2018-03-31T09:40:57.575Z,33.60
2018-03-31T09:43:25.871Z,39.00
2018-03-31T09:45:53.678Z,37.40
2018-03-31T09:48:21.501Z,38.73
2018-03-31T09:50:49.313Z,38.87
2018-03-31T09:53:17.116Z,36.10
2018-03-31T09:55:44.904Z,40.10
2018-03-31T09:58:12.679Z,40.53
2018-03-31T10:00:40.533Z,43.87
2018-03-31T10:03:08.378Z,41.13
2018-03-31T10:05:36.187Z,38.57
2018-03-31T10:08:03.959Z,41.47
2018-03-31T10:10:31.769Z,37.87
2018-03-31T10:12:59.544Z,40.17
2018-03-31T10:15:27.340Z,43.43
2018-03-31T10:17:55.176Z,40.53
2018-03-31T10:20:23.068Z,36.80
2018-03-31T10:22:50.855Z,38.47
2018-03-31T10:25:18.651Z,41.17
2018-03-31T10:27:46.416Z,42.27
2018-03-31T10:30:14.269Z,40.97
2018-03-31T10:32:42.153Z,41.10
2018-03-31T10:35:09.955Z,40.00
2018-03-31T10:37:37.762Z,39.70
2018-03-31T10:40:05.556Z,41.20
2018-03-31T10:42:33.392Z,36.87
2018-03-31T10:45:01.155Z,41.03
2018-03-31T10:47:28.937Z,41.10
2018-03-31T10:49:56.730Z,37.53
2018-03-31T10:52:24.510Z,38.93
2018-03-31T10:54:52.377Z,44.63
2018-03-31T10:57:20.147Z,39.67
2018-03-31T10:59:49.668Z,36.60
2018-03-31T11:02:17.445Z,45.10
2018-03-31T11:04:45.345Z,36.97
2018-03-31T11:07:13.159Z,42.53
2018-03-31T11:09:40.972Z,36.17
2018-03-31T11:12:08.910Z,37.37
2018-03-31T11:14:36.695Z,34.40
2018-03-31T11:17:04.533Z,35.70
2018-03-31T11:19:32.385Z,38.40
2018-03-31T11:22:00.166Z,37.30
2018-03-31T11:24:27.968Z,36.63
2018-03-31T11:26:56.068Z,39.70
2018-03-31T11:29:23.920Z,41.17
2018-03-31T11:31:51.863Z,38.80
2018-03-31T11:34:20.025Z,40.73
2018-03-31T11:36:47.873Z,44.33
2018-03-31T11:39:15.796Z,44.17
2018-03-31T11:41:43.575Z,40.97
2018-03-31T11:44:11.400Z,42.90
2018-03-31T11:46:39.338Z,40.67
2018-03-31T11:49:07.242Z,44.63
2018-03-31T11:51:35.048Z,42.20
2018-03-31T11:54:02.838Z,40.67
2018-03-31T11:56:30.723Z,41.97
2018-03-31T11:58:58.514Z,44.27
2018-03-31T12:01:26.328Z,46.63
2018-03-31T12:03:54.185Z,44.47
2018-03-31T12:06:22.036Z,45.23
2018-03-31T12:08:49.953Z,42.63
2018-03-31T12:11:17.717Z,43.30
2018-03-31T12:13:45.574Z,44.13
2018-03-31T12:16:13.366Z,45.77
2018-03-31T12:18:41.177Z,43.47
2018-03-31T12:21:08.955Z,43.67
2018-03-31T12:23:36.756Z,46.63
2018-03-31T12:26:04.765Z,50.40
2018-03-31T12:28:32.566Z,45.07
2018-03-31T12:31:00.576Z,45.53
2018-03-31T12:33:29.375Z,49.43
2018-03-31T12:35:57.180Z,44.90
2018-03-31T12:38:24.962Z,46.57
2018-03-31T12:40:52.756Z,45.43
2018-03-31T12:43:20.582Z,45.17
2018-03-31T12:45:48.413Z,50.13
2018-03-31T12:48:16.196Z,51.53
2018-03-31T12:50:43.988Z,48.60
2018-03-31T12:53:11.854Z,45.37
2018-03-31T12:55:39.638Z,46.50
2018-03-31T12:58:07.496Z,52.30
2018-03-31T13:00:35.348Z,38.77
2018-03-31T13:03:03.116Z,37.93
2018-03-31T13:05:30.940Z,39.67
2018-03-31T13:07:58.741Z,39.63
2018-03-31T13:10:27.383Z,41.17
2018-03-31T13:12:55.272Z,40.73
2018-03-31T13:15:23.066Z,38.97
2018-03-31T13:17:50.844Z,39.20
2018-03-31T13:20:18.639Z,34.70
2018-03-31T13:22:46.429Z,36.27
2018-03-31T13:25:14.319Z,37.77
2018-03-31T13:27:42.082Z,32.87
2018-03-31T13:30:09.936Z,35.93
2018-03-31T13:32:37.710Z,40.37
2018-03-31T13:35:05.639Z,36.00
2018-03-31T13:37:33.390Z,33.10
2018-03-31T13:40:01.212Z,38.60
2018-03-31T13:42:28.985Z,34.50
2018-03-31T13:44:56.801Z,35.80
2018-03-31T13:47:24.619Z,31.47
2018-03-31T13:49:52.427Z,32.20
2018-03-31T13:52:20.233Z,30.57
2018-03-31T13:54:48.016Z,34.00
2018-03-31T13:57:15.899Z,31.10
2018-03-31T13:59:43.766Z,42.03
2018-03-31T14:02:11.569Z,38.80
2018-03-31T14:04:39.390Z,36.27
2018-03-31T14:07:07.183Z,36.63
2018-03-31T14:09:34.973Z,32.07
2018-03-31T14:12:02.766Z,32.87
2018-03-31T14:14:30.557Z,34.13
2018-03-31T14:16:58.371Z,36.53
2018-03-31T14:19:26.148Z,32.30
2018-03-31T14:21:53.947Z,33.50
2018-03-31T14:24:21.721Z,33.30
2018-03-31T14:26:49.575Z,30.97
2018-03-31T14:29:17.431Z,27.80
2018-03-31T14:31:45.262Z,30.00
2018-03-31T14:34:13.117Z,27.73
2018-03-31T14:36:40.970Z,29.80
2018-03-31T14:39:09.018Z,28.33
2018-03-31T14:41:36.815Z,36.27
2018-03-31T14:44:04.602Z,33.93
2018-03-31T14:46:32.443Z,31.00
2018-03-31T14:49:00.280Z,37.67
2018-03-31T14:51:28.092Z,35.77
2018-03-31T14:53:55.869Z,37.53
2018-03-31T14:56:23.693Z,39.80
2018-03-31T14:58:51.476Z,41.27
2018-03-31T15:01:19.283Z,47.03
2018-03-31T15:03:47.039Z,40.97
2018-03-31T15:06:14.851Z,41.37
2018-03-31T15:08:48.933Z,48.40
2018-03-31T15:11:16.711Z,41.33
2018-03-31T15:13:44.533Z,41.33
2018-03-31T15:16:13.110Z,39.70
2018-03-31T15:18:40.845Z,37.83
2018-03-31T15:21:08.646Z,40.73
2018-03-31T15:23:36.419Z,39.17
2018-03-31T15:26:04.218Z,36.40
2018-03-31T15:28:32.156Z,41.30
2018-03-31T15:30:59.860Z,40.53
2018-03-31T15:33:28.524Z,43.83
2018-03-31T15:35:56.309Z,48.27
2018-03-31T15:38:24.103Z,47.97
2018-03-31T15:40:51.889Z,56.50
2018-03-31T15:43:19.686Z,59.83
2018-03-31T15:45:47.504Z,57.30
2018-03-31T15:48:15.357Z,59.13
2018-03-31T15:50:43.335Z,57.70
2018-03-31T15:53:11.194Z,56.10
2018-03-31T15:55:39.197Z,57.37
2018-03-31T15:58:07.046Z,63.23
2018-03-31T16:00:34.834Z,63.77
2018-03-31T16:03:02.633Z,59.47
2018-03-31T16:05:30.606Z,65.43
2018-03-31T16:07:58.674Z,65.90
2018-03-31T16:10:26.695Z,76.53
2018-03-31T16:12:54.455Z,66.50
2018-03-31T16:15:22.253Z,61.57
2018-03-31T16:17:50.031Z,69.33
2018-03-31T16:20:17.874Z,69.63
2018-03-31T16:22:45.705Z,74.47
2018-03-31T16:25:13.509Z,67.47
2018-03-31T16:27:41.354Z,62.30
2018-03-31T16:30:09.155Z,73.30
2018-03-31T16:32:36.929Z,74.60
2018-03-31T16:35:05.001Z,69.00
2018-03-31T16:37:32.790Z,74.23
2018-03-31T16:40:00.607Z,71.60
2018-03-31T16:42:28.372Z,74.80
2018-03-31T16:44:56.170Z,68.90
2018-03-31T16:47:24.069Z,67.17
2018-03-31T16:49:51.860Z,76.87
2018-03-31T16:52:19.676Z,80.20
2018-03-31T16:54:47.488Z,80.33
2018-03-31T16:57:15.282Z,86.53
2018-03-31T16:59:43.080Z,80.80
2018-03-31T17:02:10.844Z,86.70
2018-03-31T17:04:38.649Z,80.17
2018-03-31T17:07:06.423Z,84.67
2018-03-31T17:09:34.270Z,85.17
2018-03-31T17:12:02.044Z,81.00
2018-03-31T17:14:29.845Z,69.20
2018-03-31T17:16:57.623Z,73.60
2018-03-31T17:19:25.409Z,64.87
2018-03-31T17:21:53.311Z,68.03
2018-03-31T17:24:21.152Z,63.87
2018-03-31T17:26:48.948Z,71.03
2018-03-31T17:29:16.745Z,63.37
2018-03-31T17:31:44.537Z,57.73
2018-03-31T17:34:12.307Z,56.13
2018-03-31T17:36:40.364Z,55.90
2018-03-31T17:39:08.105Z,56.53
2018-03-31T17:41:35.996Z,55.77
2018-03-31T17:44:03.801Z,52.83
2018-03-31T17:46:31.645Z,53.93
2018-03-31T17:48:59.524Z,52.50
2018-03-31T17:51:27.304Z,48.37
2018-03-31T17:53:55.089Z,43.57
2018-03-31T17:56:22.884Z,52.60
2018-03-31T17:58:50.675Z,54.37
2018-03-31T18:01:18.486Z,52.90
2018-03-31T18:03:46.314Z,50.40
2018-03-31T18:06:14.198Z,53.63
2018-03-31T18:08:42.261Z,55.27
2018-03-31T18:11:10.157Z,54.03
2018-03-31T18:13:38.013Z,52.80
2018-03-31T18:16:05.813Z,53.33
2018-03-31T18:18:33.598Z,52.40
2018-03-31T18:21:01.517Z,47.00
2018-03-31T18:23:29.361Z,52.37
2018-03-31T18:25:57.128Z,44.77
2018-03-31T18:28:25.007Z,51.80
2018-03-31T18:30:52.885Z,48.40
2018-03-31T18:33:20.705Z,46.23
2018-03-31T18:35:48.471Z,39.93
2018-03-31T18:38:16.270Z,45.87
2018-03-31T18:40:44.062Z,48.00
2018-03-31T18:43:11.853Z,44.80
2018-03-31T18:45:39.648Z,44.03
2018-03-31T18:48:07.436Z,39.13
2018-03-31T18:50:35.325Z,41.13
2018-03-31T18:53:03.117Z,40.90
2018-03-31T18:55:30.974Z,40.60
2018-03-31T18:57:58.873Z,37.93
2018-03-31T19:00:26.643Z,38.27
2018-03-31T19:02:54.587Z,39.47
2018-03-31T19:05:22.356Z,34.63
2018-03-31T19:07:50.166Z,40.07
2018-03-31T19:10:18.044Z,40.37
2018-03-31T19:12:45.839Z,39.43
2018-03-31T19:15:13.704Z,40.47
2018-03-31T19:17:41.495Z,38.13
2018-03-31T19:20:09.269Z,39.67
2018-03-31T19:22:37.072Z,37.07
2018-03-31T19:28:04.855Z,42.97
2018-03-31T19:30:38.356Z,39.30
2018-03-31T19:33:06.138Z,40.50
2018-03-31T19:35:39.438Z,40.17
2018-03-31T19:38:07.321Z,34.73
2018-03-31T19:40:35.108Z,35.97
2018-03-31T19:43:02.994Z,35.93
2018-03-31T19:45:30.803Z,37.77
2018-03-31T19:47:58.638Z,35.00
2018-03-31T19:50:26.505Z,33.23
2018-03-31T19:52:54.302Z,30.20
2018-03-31T19:55:22.183Z,34.93
2018-03-31T19:57:50.939Z,29.90
2018-03-31T20:00:18.838Z,28.47
2018-03-31T20:02:46.662Z,27.17
2018-03-31T20:05:14.463Z,28.57
2018-03-31T20:07:42.274Z,31.20
2018-03-31T20:10:10.070Z,25.87
2018-03-31T20:12:37.847Z,25.97
2018-03-31T20:15:05.732Z,29.23
2018-03-31T20:17:33.506Z,37.23
2018-03-31T20:20:01.396Z,33.00
2018-03-31T20:22:29.162Z,33.73
2018-03-31T20:24:57.018Z,31.27
2018-03-31T20:27:24.799Z,35.47
2018-03-31T20:29:52.650Z,39.47
2018-03-31T20:32:20.498Z,36.30
2018-03-31T20:34:48.272Z,36.10
2018-03-31T20:37:16.092Z,38.63
2018-03-31T20:39:43.900Z,41.43
2018-03-31T20:42:11.740Z,40.13
2018-03-31T20:44:39.558Z,41.80
2018-03-31T20:47:07.362Z,36.63
2018-03-31T20:49:35.327Z,35.20
2018-03-31T20:52:03.210Z,34.77
2018-03-31T20:54:30.987Z,31.83
2018-03-31T20:56:58.804Z,33.30
2018-03-31T20:59:26.594Z,31.93
2018-03-31T21:01:54.417Z,36.70
2018-03-31T21:04:22.438Z,34.20
2018-03-31T21:06:50.225Z,32.00
2018-03-31T21:09:19.169Z,36.37
2018-03-31T21:11:46.957Z,35.43
2018-03-31T21:14:14.842Z,32.20
2018-03-31T21:16:42.732Z,29.90
2018-03-31T21:19:10.524Z,33.77
2018-03-31T21:21:38.313Z,34.83
2018-03-31T21:24:06.171Z,34.63
2018-03-31T21:26:33.966Z,31.87
2018-03-31T21:29:01.827Z,34.77
2018-03-31T21:31:29.632Z,32.13
2018-03-31T21:33:59.279Z,36.80
2018-03-31T21:36:27.100Z,34.07
2018-03-31T21:38:55.006Z,28.80
2018-03-31T21:41:22.802Z,32.97
2018-03-31T21:43:50.657Z,27.30
2018-03-31T21:46:18.438Z,29.70
2018-03-31T21:48:46.230Z,29.90
2018-03-31T21:51:14.071Z,26.27
2018-03-31T21:53:41.943Z,25.90
2018-03-31T21:56:09.762Z,29.27
2018-03-31T21:58:37.565Z,24.70
2018-03-31T22:01:05.357Z,26.93
2018-03-31T22:03:33.179Z,25.53
2018-03-31T22:06:01.022Z,27.80
2018-03-31T22:08:28.848Z,26.27
2018-03-31T22:10:56.629Z,26.10
2018-03-31T22:13:29.924Z,26.67
2018-03-31T22:15:57.717Z,28.93
2018-03-31T22:18:25.509Z,31.00
2018-03-31T22:20:53.294Z,28.73
2018-03-31T22:23:21.094Z,28.17
2018-03-31T22:25:49.123Z,31.40
2018-03-31T22:28:18.058Z,31.47
2018-03-31T22:30:45.847Z,29.07
2018-03-31T22:33:13.641Z,28.80
2018-03-31T22:35:41.530Z,29.90
2018-03-31T22:38:09.346Z,24.73
2018-03-31T22:40:37.130Z,30.80
2018-03-31T22:43:04.927Z,26.03
2018-03-31T22:45:32.791Z,27.13
2018-03-31T22:48:00.576Z,27.53
2018-03-31T22:50:28.419Z,27.17
2018-03-31T22:52:56.177Z,26.53
2018-03-31T22:55:24.035Z,25.90
2018-03-31T22:57:51.869Z,26.47
2018-03-31T23:00:19.784Z,25.53
2018-03-31T23:02:47.583Z,26.63
2018-03-31T23:05:15.479Z,23.67
2018-03-31T23:07:43.321Z,24.33
2018-03-31T23:10:11.816Z,26.73
2018-03-31T23:12:40.089Z,25.50
2018-03-31T23:15:07.887Z,26.43
2018-03-31T23:17:35.707Z,23.07
2018-03-31T23:20:03.592Z,25.10
2018-03-31T23:22:31.379Z,24.07
2018-03-31T23:24:59.228Z,27.30
2018-03-31T23:27:27.037Z,29.77
2018-03-31T23:29:54.848Z,25.43
2018-03-31T23:32:22.635Z,25.37
2018-03-31T23:34:50.457Z,18.43
2018-03-31T23:37:18.242Z,16.90
2018-03-31T23:39:46.117Z,16.43
2018-03-31T23:42:13.894Z,15.27
2018-03-31T23:44:41.727Z,13.40
2018-03-31T23:47:09.565Z,14.77
2018-03-31T23:49:37.373Z,14.37
2018-03-31T23:52:05.200Z,14.57
2018-03-31T23:54:33.004Z,12.80
2018-03-31T23:57:00.789Z,15.13
2018-03-31T23:59:28.564Z,12.50
